sensor_id;sensor_type;location;lat;lon;timestamp;pressure;altitude;pressure_sealevel;temperature;humidity
54236;BME280;40151;43.606;1.472;2023-03-20T00:01:22;100082.91;;;19.43;56.44
54236;BME280;40151;43.606;1.472;2023-03-20T00:03:49;100082.03;;;19.42;56.33
54236;BME280;40151;43.606;1.472;2023-03-20T00:06:16;100088.31;;;19.40;56.46
54236;BME280;40151;43.606;1.472;2023-03-20T00:08:46;100086.66;;;19.37;56.36
54236;BME280;40151;43.606;1.472;2023-03-20T00:11:26;100090.16;;;19.38;56.38
54236;BME280;40151;43.606;1.472;2023-03-20T00:14:03;100085.81;;;19.37;56.43
54236;BME280;40151;43.606;1.472;2023-03-20T00:16:33;100080.59;;;19.35;56.08
54236;BME280;40151;43.606;1.472;2023-03-20T00:18:59;100089.47;;;19.34;56.33
54236;BME280;40151;43.606;1.472;2023-03-20T00:21:24;100090.22;;;19.36;56.41
54236;BME280;40151;43.606;1.472;2023-03-20T00:23:50;100085.88;;;19.35;56.24
54236;BME280;40151;43.606;1.472;2023-03-20T00:26:17;100074.50;;;19.33;56.30
54236;BME280;40151;43.606;1.472;2023-03-20T00:28:47;100079.81;;;19.33;56.21
54236;BME280;40151;43.606;1.472;2023-03-20T00:31:24;100077.34;;;19.28;56.20
54236;BME280;40151;43.606;1.472;2023-03-20T00:33:50;100079.97;;;19.28;56.22
54236;BME280;40151;43.606;1.472;2023-03-20T00:36:16;100078.28;;;19.27;56.41
54236;BME280;40151;43.606;1.472;2023-03-20T00:38:41;100076.44;;;19.29;56.26
54236;BME280;40151;43.606;1.472;2023-03-20T00:43:44;100077.34;;;19.28;56.14
54236;BME280;40151;43.606;1.472;2023-03-20T00:46:12;100079.19;;;19.26;55.90
54236;BME280;40151;43.606;1.472;2023-03-20T00:48:39;100076.56;;;19.26;56.05
54236;BME280;40151;43.606;1.472;2023-03-20T00:51:06;100072.13;;;19.27;56.10
54236;BME280;40151;43.606;1.472;2023-03-20T00:53:31;100065.97;;;19.26;56.04
54236;BME280;40151;43.606;1.472;2023-03-20T00:55:57;100069.56;;;19.25;55.85
54236;BME280;40151;43.606;1.472;2023-03-20T00:58:25;100058.97;;;19.25;56.08
54236;BME280;40151;43.606;1.472;2023-03-20T01:00:51;100061.69;;;19.24;56.03
54236;BME280;40151;43.606;1.472;2023-03-20T01:03:19;100053.78;;;19.22;56.29
54236;BME280;40151;43.606;1.472;2023-03-20T01:05:45;100052.09;;;19.21;56.13
54236;BME280;40151;43.606;1.472;2023-03-20T01:10:40;100048.66;;;19.19;55.88
54236;BME280;40151;43.606;1.472;2023-03-20T01:13:23;100046.94;;;19.18;56.07
54236;BME280;40151;43.606;1.472;2023-03-20T01:15:50;100043.50;;;19.16;55.82
54236;BME280;40151;43.606;1.472;2023-03-20T01:18:18;100033.72;;;19.18;55.97
54236;BME280;40151;43.606;1.472;2023-03-20T01:20:43;100041.66;;;19.18;55.96
54236;BME280;40151;43.606;1.472;2023-03-20T01:23:10;100043.50;;;19.16;55.92
54236;BME280;40151;43.606;1.472;2023-03-20T01:25:36;100027.63;;;19.16;55.96
54236;BME280;40151;43.606;1.472;2023-03-20T01:28:03;100025.03;;;19.14;55.82
54236;BME280;40151;43.606;1.472;2023-03-20T01:30:35;100022.38;;;19.14;55.88
54236;BME280;40151;43.606;1.472;2023-03-20T01:33:09;100022.47;;;19.13;55.87
54236;BME280;40151;43.606;1.472;2023-03-20T01:35:37;100011.91;;;19.13;55.92
54236;BME280;40151;43.606;1.472;2023-03-20T01:38:10;100016.38;;;19.11;55.94
54236;BME280;40151;43.606;1.472;2023-03-20T01:43:12;100010.25;;;19.10;55.86
54236;BME280;40151;43.606;1.472;2023-03-20T01:45:53;100011.19;;;19.09;56.07
54236;BME280;40151;43.606;1.472;2023-03-20T01:48:20;100005.94;;;19.08;55.71
54236;BME280;40151;43.606;1.472;2023-03-20T01:50:48;99999.84;;;19.05;55.99
54236;BME280;40151;43.606;1.472;2023-03-20T01:53:21;100001.59;;;19.07;56.03
54236;BME280;40151;43.606;1.472;2023-03-20T01:55:49;99994.56;;;19.05;55.93
54236;BME280;40151;43.606;1.472;2023-03-20T01:58:23;99998.94;;;19.07;55.82
54236;BME280;40151;43.606;1.472;2023-03-20T02:00:50;99997.19;;;19.05;55.96
54236;BME280;40151;43.606;1.472;2023-03-20T02:03:17;99998.13;;;19.04;55.76
54236;BME280;40151;43.606;1.472;2023-03-20T02:05:43;99994.66;;;19.04;55.87
54236;BME280;40151;43.606;1.472;2023-03-20T02:08:16;99987.66;;;19.01;55.69
54236;BME280;40151;43.606;1.472;2023-03-20T02:10:45;99985.00;;;19.03;55.72
54236;BME280;40151;43.606;1.472;2023-03-20T02:13:11;99984.22;;;18.99;55.84
54236;BME280;40151;43.606;1.472;2023-03-20T02:15:57;99975.50;;;18.97;55.98
54236;BME280;40151;43.606;1.472;2023-03-20T02:18:23;99976.44;;;18.96;55.95
54236;BME280;40151;43.606;1.472;2023-03-20T02:29:27;99980.84;;;18.96;55.75
54236;BME280;40151;43.606;1.472;2023-03-20T02:40:35;99980.94;;;18.94;55.41
54236;BME280;40151;43.606;1.472;2023-03-20T02:43:10;99983.66;;;18.92;55.47
54236;BME280;40151;43.606;1.472;2023-03-20T02:45:57;99975.78;;;18.91;55.64
54236;BME280;40151;43.606;1.472;2023-03-20T02:49:32;99977.53;;;18.90;55.54
54236;BME280;40151;43.606;1.472;2023-03-20T02:51:36;99977.53;;;18.90;55.48
54236;BME280;40151;43.606;1.472;2023-03-20T02:54:09;99986.34;;;18.91;55.80
54236;BME280;40151;43.606;1.472;2023-03-20T02:56:53;99985.47;;;18.90;55.53
54236;BME280;40151;43.606;1.472;2023-03-20T02:59:32;99989.06;;;18.89;55.50
54236;BME280;40151;43.606;1.472;2023-03-20T03:02:07;99979.47;;;18.87;55.57
54236;BME280;40151;43.606;1.472;2023-03-20T03:04:43;99974.19;;;18.87;55.63
54236;BME280;40151;43.606;1.472;2023-03-20T03:07:15;99976.03;;;18.85;55.42
54236;BME280;40151;43.606;1.472;2023-03-20T03:09:50;99977.81;;;18.84;55.40
54236;BME280;40151;43.606;1.472;2023-03-20T03:12:27;99970.75;;;18.85;55.53
54236;BME280;40151;43.606;1.472;2023-03-20T03:15:15;99979.63;;;18.84;55.38
54236;BME280;40151;43.606;1.472;2023-03-20T03:17:46;99977.91;;;18.83;55.65
54236;BME280;40151;43.606;1.472;2023-03-20T03:20:32;99974.34;;;18.84;55.65
54236;BME280;40151;43.606;1.472;2023-03-20T03:22:59;99968.19;;;18.83;55.26
54236;BME280;40151;43.606;1.472;2023-03-20T03:25:35;99955.09;;;18.80;55.51
54236;BME280;40151;43.606;1.472;2023-03-20T03:28:19;99953.47;;;18.77;55.44
54236;BME280;40151;43.606;1.472;2023-03-20T03:30:46;99961.22;;;18.81;55.48
54236;BME280;40151;43.606;1.472;2023-03-20T03:33:27;99959.53;;;18.79;55.41
54236;BME280;40151;43.606;1.472;2023-03-20T03:36:06;99949.88;;;18.78;55.54
54236;BME280;40151;43.606;1.472;2023-03-20T03:44:10;99951.75;;;18.76;55.37
54236;BME280;40151;43.606;1.472;2023-03-20T03:46:42;99950.94;;;18.74;55.31
54236;BME280;40151;43.606;1.472;2023-03-20T03:49:14;99950.00;;;18.75;55.25
54236;BME280;40151;43.606;1.472;2023-03-20T03:51:42;99946.56;;;18.73;55.14
54236;BME280;40151;43.606;1.472;2023-03-20T03:54:57;99944.81;;;18.74;55.30
54236;BME280;40151;43.606;1.472;2023-03-20T03:56:58;99950.16;;;18.72;55.41
54236;BME280;40151;43.606;1.472;2023-03-20T03:59:30;99945.63;;;18.74;55.60
54236;BME280;40151;43.606;1.472;2023-03-20T04:01:57;99945.69;;;18.73;55.14
54236;BME280;40151;43.606;1.472;2023-03-20T04:04:24;99951.88;;;18.73;55.34
54236;BME280;40151;43.606;1.472;2023-03-20T04:06:51;99951.00;;;18.73;55.43
54236;BME280;40151;43.606;1.472;2023-03-20T04:09:16;99949.22;;;18.73;55.30
54236;BME280;40151;43.606;1.472;2023-03-20T04:11:42;99949.28;;;18.72;55.45
54236;BME280;40151;43.606;1.472;2023-03-20T04:14:09;99953.72;;;18.71;55.38
54236;BME280;40151;43.606;1.472;2023-03-20T04:16:36;99953.72;;;18.71;55.22
54236;BME280;40151;43.606;1.472;2023-03-20T04:19:01;99958.13;;;18.71;55.25
54236;BME280;40151;43.606;1.472;2023-03-20T04:21:27;99950.25;;;18.69;55.34
54236;BME280;40151;43.606;1.472;2023-03-20T04:23:52;99950.25;;;18.69;55.36
54236;BME280;40151;43.606;1.472;2023-03-20T04:26:17;99947.72;;;18.68;55.27
54236;BME280;40151;43.606;1.472;2023-03-20T04:28:43;99948.63;;;18.67;55.37
54236;BME280;40151;43.606;1.472;2023-03-20T04:31:08;99953.00;;;18.68;55.36
54236;BME280;40151;43.606;1.472;2023-03-20T04:33:34;99953.84;;;18.68;55.14
54236;BME280;40151;43.606;1.472;2023-03-20T04:36:00;99953.84;;;18.68;55.42
54236;BME280;40151;43.606;1.472;2023-03-20T04:38:25;99956.53;;;18.67;55.20
54236;BME280;40151;43.606;1.472;2023-03-20T04:40:51;99958.34;;;18.66;55.35
54236;BME280;40151;43.606;1.472;2023-03-20T04:43:16;99964.47;;;18.67;55.17
54236;BME280;40151;43.606;1.472;2023-03-20T04:45:42;99961.91;;;18.65;55.25
54236;BME280;40151;43.606;1.472;2023-03-20T04:48:08;99962.81;;;18.64;55.06
54236;BME280;40151;43.606;1.472;2023-03-20T04:50:33;99969.13;;;18.61;55.20
54236;BME280;40151;43.606;1.472;2023-03-20T04:52:58;99964.69;;;18.62;55.35
54236;BME280;40151;43.606;1.472;2023-03-20T04:55:24;99961.09;;;18.63;55.04
54236;BME280;40151;43.606;1.472;2023-03-20T04:57:50;99969.97;;;18.62;55.00
54236;BME280;40151;43.606;1.472;2023-03-20T05:00:15;99961.25;;;18.60;55.14
54236;BME280;40151;43.606;1.472;2023-03-20T05:02:42;99968.25;;;18.61;55.18
54236;BME280;40151;43.606;1.472;2023-03-20T05:05:07;99963.97;;;18.58;55.19
54236;BME280;40151;43.606;1.472;2023-03-20T05:07:33;99966.53;;;18.60;55.02
54236;BME280;40151;43.606;1.472;2023-03-20T05:09:58;99963.97;;;18.58;55.23
54236;BME280;40151;43.606;1.472;2023-03-20T05:12:24;99964.03;;;18.57;55.44
54236;BME280;40151;43.606;1.472;2023-03-20T05:14:51;99953.44;;;18.57;55.11
54236;BME280;40151;43.606;1.472;2023-03-20T05:17:19;99953.59;;;18.54;55.38
54236;BME280;40151;43.606;1.472;2023-03-20T05:19:45;99957.06;;;18.54;54.98
54236;BME280;40151;43.606;1.472;2023-03-20T05:22:11;99961.53;;;18.54;55.32
54236;BME280;40151;43.606;1.472;2023-03-20T05:24:37;99954.38;;;18.56;55.25
54236;BME280;40151;43.606;1.472;2023-03-20T05:27:02;99963.22;;;18.55;55.39
54236;BME280;40151;43.606;1.472;2023-03-20T05:29:28;99972.09;;;18.54;55.15
54236;BME280;40151;43.606;1.472;2023-03-20T05:31:53;99978.22;;;18.54;55.33
54236;BME280;40151;43.606;1.472;2023-03-20T05:34:20;99977.38;;;18.54;55.12
54236;BME280;40151;43.606;1.472;2023-03-20T05:36:46;99966.81;;;18.54;54.98
54236;BME280;40151;43.606;1.472;2023-03-20T05:39:11;99967.66;;;18.54;55.02
54236;BME280;40151;43.606;1.472;2023-03-20T05:41:37;99969.44;;;18.54;54.90
54236;BME280;40151;43.606;1.472;2023-03-20T05:44:02;99975.66;;;18.52;55.15
54236;BME280;40151;43.606;1.472;2023-03-20T05:46:28;99980.03;;;18.54;55.10
54236;BME280;40151;43.606;1.472;2023-03-20T05:48:53;99976.50;;;18.53;55.13
54236;BME280;40151;43.606;1.472;2023-03-20T05:51:19;99978.38;;;18.51;54.99
54236;BME280;40151;43.606;1.472;2023-03-20T05:53:44;99978.38;;;18.51;54.92
54236;BME280;40151;43.606;1.472;2023-03-20T05:56:10;99971.44;;;18.48;55.06
54236;BME280;40151;43.606;1.472;2023-03-20T05:58:36;99974.06;;;18.48;54.97
54236;BME280;40151;43.606;1.472;2023-03-20T06:01:01;99975.91;;;18.46;54.94
54236;BME280;40151;43.606;1.472;2023-03-20T06:03:27;99970.59;;;18.46;54.79
54236;BME280;40151;43.606;1.472;2023-03-20T06:05:52;99967.13;;;18.46;54.91
54236;BME280;40151;43.606;1.472;2023-03-20T06:08:18;99975.91;;;18.46;54.98
54236;BME280;40151;43.606;1.472;2023-03-20T06:10:43;99975.06;;;18.46;54.82
54236;BME280;40151;43.606;1.472;2023-03-20T06:13:09;99975.97;;;18.45;54.88
54236;BME280;40151;43.606;1.472;2023-03-20T06:15:34;99972.47;;;18.44;54.83
54236;BME280;40151;43.606;1.472;2023-03-20T06:17:59;99969.00;;;18.44;55.00
54236;BME280;40151;43.606;1.472;2023-03-20T06:20:25;99977.75;;;18.44;55.02
54236;BME280;40151;43.606;1.472;2023-03-20T06:22:51;99980.53;;;18.41;55.21
54236;BME280;40151;43.606;1.472;2023-03-20T06:25:17;99976.03;;;18.43;54.99
54236;BME280;40151;43.606;1.472;2023-03-20T06:27:45;99988.47;;;18.41;55.02
54236;BME280;40151;43.606;1.472;2023-03-20T06:30:11;99991.94;;;18.42;55.14
54236;BME280;40151;43.606;1.472;2023-03-20T06:32:36;99995.47;;;18.42;55.10
54236;BME280;40151;43.606;1.472;2023-03-20T06:35:03;99998.09;;;18.42;55.08
54236;BME280;40151;43.606;1.472;2023-03-20T06:37:30;99991.03;;;18.43;55.11
54236;BME280;40151;43.606;1.472;2023-03-20T06:39:55;100000.75;;;18.42;55.14
54236;BME280;40151;43.606;1.472;2023-03-20T06:42:21;100003.41;;;18.42;54.89
54236;BME280;40151;43.606;1.472;2023-03-20T06:44:46;100001.69;;;18.41;55.25
54236;BME280;40151;43.606;1.472;2023-03-20T06:47:12;100007.03;;;18.40;55.23
54236;BME280;40151;43.606;1.472;2023-03-20T06:49:37;99999.16;;;18.38;54.96
54236;BME280;40151;43.606;1.472;2023-03-20T06:52:03;100002.56;;;18.40;55.08
54236;BME280;40151;43.606;1.472;2023-03-20T06:54:28;100000.88;;;18.39;54.96
54236;BME280;40151;43.606;1.472;2023-03-20T06:56:53;100000.09;;;18.37;54.91
54236;BME280;40151;43.606;1.472;2023-03-20T06:59:19;99995.59;;;18.39;54.94
54236;BME280;40151;43.606;1.472;2023-03-20T07:01:44;100009.72;;;18.38;55.03
54236;BME280;40151;43.606;1.472;2023-03-20T07:04:10;100006.28;;;18.36;55.26
54236;BME280;40151;43.606;1.472;2023-03-20T07:06:36;100015.00;;;18.38;54.93
54236;BME280;40151;43.606;1.472;2023-03-20T07:09:02;100014.13;;;18.37;55.18
54236;BME280;40151;43.606;1.472;2023-03-20T07:11:28;100016.88;;;18.36;55.06
54236;BME280;40151;43.606;1.472;2023-03-20T07:13:54;100012.50;;;18.35;55.16
54236;BME280;40151;43.606;1.472;2023-03-20T07:16:20;100010.66;;;18.37;54.94
54236;BME280;40151;43.606;1.472;2023-03-20T07:18:46;100011.56;;;18.36;55.03
54236;BME280;40151;43.606;1.472;2023-03-20T07:21:16;100009.00;;;18.34;55.04
54236;BME280;40151;43.606;1.472;2023-03-20T07:23:43;100011.56;;;18.36;55.29
54236;BME280;40151;43.606;1.472;2023-03-20T07:26:08;100012.56;;;18.33;55.15
54236;BME280;40151;43.606;1.472;2023-03-20T07:28:33;100011.56;;;18.36;55.18
54236;BME280;40151;43.606;1.472;2023-03-20T07:30:59;100009.88;;;18.35;54.99
54236;BME280;40151;43.606;1.472;2023-03-20T07:33:24;100014.28;;;18.34;55.21
54236;BME280;40151;43.606;1.472;2023-03-20T07:35:53;100016.03;;;18.34;55.20
54236;BME280;40151;43.606;1.472;2023-03-20T07:38:19;100011.56;;;18.36;55.23
54236;BME280;40151;43.606;1.472;2023-03-20T07:40:45;100013.34;;;18.35;55.15
54236;BME280;40151;43.606;1.472;2023-03-20T07:43:13;100017.84;;;18.33;54.97
54236;BME280;40151;43.606;1.472;2023-03-20T07:45:38;100025.56;;;18.38;54.84
54236;BME280;40151;43.606;1.472;2023-03-20T07:48:04;100016.00;;;18.35;54.99
54236;BME280;40151;43.606;1.472;2023-03-20T07:50:29;100020.34;;;18.36;54.94
54236;BME280;40151;43.606;1.472;2023-03-20T07:52:55;100028.28;;;18.36;54.96
54236;BME280;40151;43.606;1.472;2023-03-20T07:55:20;100015.00;;;18.38;54.84
54236;BME280;40151;43.606;1.472;2023-03-20T07:57:47;100024.69;;;18.37;55.15
54236;BME280;40151;43.606;1.472;2023-03-20T08:00:14;100022.06;;;18.37;55.02
54236;BME280;40151;43.606;1.472;2023-03-20T08:02:39;100024.69;;;18.37;55.02
54236;BME280;40151;43.606;1.472;2023-03-20T08:05:05;100026.44;;;18.38;55.11
54236;BME280;40151;43.606;1.472;2023-03-20T08:07:31;100023.72;;;18.40;54.92
54236;BME280;40151;43.606;1.472;2023-03-20T08:09:57;100023.72;;;18.40;54.75
54236;BME280;40151;43.606;1.472;2023-03-20T08:12:22;100024.59;;;18.41;55.07
54236;BME280;40151;43.606;1.472;2023-03-20T08:14:48;100016.59;;;18.42;54.86
54236;BME280;40151;43.606;1.472;2023-03-20T08:17:13;100029.81;;;18.42;55.05
54236;BME280;40151;43.606;1.472;2023-03-20T08:19:38;100025.31;;;18.44;54.88
54236;BME280;40151;43.606;1.472;2023-03-20T08:22:04;100035.88;;;18.44;54.98
54236;BME280;40151;43.606;1.472;2023-03-20T08:24:29;100023.47;;;18.46;54.79
54236;BME280;40151;43.606;1.472;2023-03-20T08:26:55;100029.63;;;18.47;54.84
54236;BME280;40151;43.606;1.472;2023-03-20T08:29:21;100028.69;;;18.48;54.68
54236;BME280;40151;43.606;1.472;2023-03-20T08:31:46;100028.63;;;18.49;54.91
54236;BME280;40151;43.606;1.472;2023-03-20T08:34:12;100025.06;;;18.50;54.54
54236;BME280;40151;43.606;1.472;2023-03-20T08:36:37;100026.78;;;18.51;54.90
54236;BME280;40151;43.606;1.472;2023-03-20T08:39:04;100017.06;;;18.52;54.49
54236;BME280;40151;43.606;1.472;2023-03-20T08:41:31;100025.72;;;18.56;54.70
54236;BME280;40151;43.606;1.472;2023-03-20T08:43:57;100021.38;;;18.55;54.68
54236;BME280;40151;43.606;1.472;2023-03-20T08:46:22;100014.38;;;18.54;54.41
54236;BME280;40151;43.606;1.472;2023-03-20T08:48:48;100011.66;;;18.55;54.43
54236;BME280;40151;43.606;1.472;2023-03-20T08:51:13;100021.31;;;18.56;54.74
54236;BME280;40151;43.606;1.472;2023-03-20T08:53:39;100022.09;;;18.58;54.67
54236;BME280;40151;43.606;1.472;2023-03-20T08:56:05;100021.22;;;18.58;54.50
54236;BME280;40151;43.606;1.472;2023-03-20T08:58:30;100013.25;;;18.59;54.51
54236;BME280;40151;43.606;1.472;2023-03-20T09:00:56;100015.69;;;18.64;54.41
54236;BME280;40151;43.606;1.472;2023-03-20T09:03:21;100013.97;;;18.63;54.40
54236;BME280;40151;43.606;1.472;2023-03-20T09:05:48;100009.50;;;18.65;54.40
54236;BME280;40151;43.606;1.472;2023-03-20T09:08:15;100025.16;;;18.70;54.38
54236;BME280;40151;43.606;1.472;2023-03-20T09:10:40;100012.72;;;18.72;54.33
54236;BME280;40151;43.606;1.472;2023-03-20T09:13:06;100010.94;;;18.72;54.21
54236;BME280;40151;43.606;1.472;2023-03-20T09:15:33;100004.78;;;18.72;54.21
54236;BME280;40151;43.606;1.472;2023-03-20T09:17:58;100015.31;;;18.73;53.91
54236;BME280;40151;43.606;1.472;2023-03-20T09:20:24;100006.44;;;18.74;54.08
54236;BME280;40151;43.606;1.472;2023-03-20T09:22:49;100009.97;;;18.75;54.13
54236;BME280;40151;43.606;1.472;2023-03-20T09:25:15;100005.47;;;18.77;54.20
54236;BME280;40151;43.606;1.472;2023-03-20T09:27:40;100002.81;;;18.77;54.27
54236;BME280;40151;43.606;1.472;2023-03-20T09:30:08;100008.88;;;18.79;54.01
54236;BME280;40151;43.606;1.472;2023-03-20T09:32:34;100004.47;;;18.79;54.10
54236;BME280;40151;43.606;1.472;2023-03-20T09:35:00;100006.31;;;18.77;54.04
54236;BME280;40151;43.606;1.472;2023-03-20T09:37:26;100005.41;;;18.78;54.19
54236;BME280;40151;43.606;1.472;2023-03-20T09:39:51;100006.19;;;18.81;54.21
54236;BME280;40151;43.606;1.472;2023-03-20T09:47:44;99998.06;;;18.85;53.79
54236;BME280;40151;43.606;1.472;2023-03-20T09:50:24;99995.34;;;18.87;53.91
54236;BME280;40151;43.606;1.472;2023-03-20T09:53:19;99984.75;;;18.87;53.79
54236;BME280;40151;43.606;1.472;2023-03-20T09:55:46;99988.34;;;18.86;53.73
54236;BME280;40151;43.606;1.472;2023-03-20T09:58:25;99987.41;;;18.87;53.76
54236;BME280;40151;43.606;1.472;2023-03-20T10:00:55;99986.47;;;18.88;54.02
54236;BME280;40151;43.606;1.472;2023-03-20T10:03:47;99981.19;;;18.88;53.75
54236;BME280;40151;43.606;1.472;2023-03-20T10:06:15;99977.63;;;18.89;54.00
54236;BME280;40151;43.606;1.472;2023-03-20T10:08:43;99972.34;;;18.89;53.66
54236;BME280;40151;43.606;1.472;2023-03-20T10:14:14;99968.78;;;18.90;53.68
54236;BME280;40151;43.606;1.472;2023-03-20T10:16:47;99975.78;;;18.91;53.74
54236;BME280;40151;43.606;1.472;2023-03-20T10:21:54;99966.91;;;18.92;53.66
54236;BME280;40151;43.606;1.472;2023-03-20T10:24:35;99963.34;;;18.93;53.77
54236;BME280;40151;43.606;1.472;2023-03-20T10:27:13;99965.97;;;18.93;53.73
54236;BME280;40151;43.606;1.472;2023-03-20T10:30:11;99954.50;;;18.94;53.62
54236;BME280;40151;43.606;1.472;2023-03-20T10:40:36;99960.50;;;18.98;53.71
54236;BME280;40151;43.606;1.472;2023-03-20T10:43:30;99949.84;;;18.99;53.63
54236;BME280;40151;43.606;1.472;2023-03-20T10:48:32;99951.59;;;19.00;53.58
54236;BME280;40151;43.606;1.472;2023-03-20T10:51:02;99946.16;;;19.03;53.83
54236;BME280;40151;43.606;1.472;2023-03-20T10:53:36;99945.22;;;19.04;53.66
54236;BME280;40151;43.606;1.472;2023-03-20T10:56:09;99937.28;;;19.04;53.42
54236;BME280;40151;43.606;1.472;2023-03-20T10:58:39;99932.88;;;19.05;53.59
54236;BME280;40151;43.606;1.472;2023-03-20T11:01:06;99934.59;;;19.06;53.34
54236;BME280;40151;43.606;1.472;2023-03-20T11:03:32;99935.47;;;19.07;53.33
54236;BME280;40151;43.606;1.472;2023-03-20T11:06:27;99929.25;;;19.08;53.43
54236;BME280;40151;43.606;1.472;2023-03-20T11:09:10;99929.19;;;19.09;53.49
54236;BME280;40151;43.606;1.472;2023-03-20T11:11:38;99927.38;;;19.10;53.54
54236;BME280;40151;43.606;1.472;2023-03-20T11:14:16;99923.78;;;19.11;53.38
54236;BME280;40151;43.606;1.472;2023-03-20T11:16:46;99921.09;;;19.12;53.46
54236;BME280;40151;43.606;1.472;2023-03-20T11:19:13;99912.31;;;19.12;53.43
54236;BME280;40151;43.606;1.472;2023-03-20T11:21:50;99910.44;;;19.14;53.31
54236;BME280;40151;43.606;1.472;2023-03-20T11:24:45;99904.22;;;19.15;53.38
54236;BME280;40151;43.606;1.472;2023-03-20T11:27:16;99900.69;;;19.14;53.63
54236;BME280;40151;43.606;1.472;2023-03-20T11:29:45;99897.06;;;19.17;53.33
54236;BME280;40151;43.606;1.472;2023-03-20T11:34:54;99887.28;;;19.19;53.62
54236;BME280;40151;43.606;1.472;2023-03-20T11:37:32;99884.63;;;19.19;53.55
54236;BME280;40151;43.606;1.472;2023-03-20T11:42:38;99886.19;;;19.23;53.54
54236;BME280;40151;43.606;1.472;2023-03-20T11:45:12;99882.63;;;19.24;53.23
54236;BME280;40151;43.606;1.472;2023-03-20T11:47:40;99874.69;;;19.24;53.36
54236;BME280;40151;43.606;1.472;2023-03-20T11:50:23;99871.97;;;19.26;53.38
54236;BME280;40151;43.606;1.472;2023-03-20T11:52:50;99864.88;;;19.26;53.17
54236;BME280;40151;43.606;1.472;2023-03-20T11:55:41;99860.38;;;19.28;53.29
54236;BME280;40151;43.606;1.472;2023-03-20T11:58:14;99856.00;;;19.27;53.13
54236;BME280;40151;43.606;1.472;2023-03-20T12:00:41;99845.38;;;19.29;53.40
54236;BME280;40151;43.606;1.472;2023-03-20T12:03:35;99848.00;;;19.29;53.12
54236;BME280;40151;43.606;1.472;2023-03-20T12:06:05;99848.78;;;19.31;53.45
54236;BME280;40151;43.606;1.472;2023-03-20T12:08:31;99844.38;;;19.31;53.20
54236;BME280;40151;43.606;1.472;2023-03-20T12:11:05;99847.00;;;19.31;53.23
54236;BME280;40151;43.606;1.472;2023-03-20T12:13:35;99845.13;;;19.34;53.12
54236;BME280;40151;43.606;1.472;2023-03-20T12:16:10;99841.56;;;19.35;53.56
54236;BME280;40151;43.606;1.472;2023-03-20T12:18:42;99839.72;;;19.37;53.26
54236;BME280;40151;43.606;1.472;2023-03-20T12:24:28;99825.53;;;19.38;53.04
54236;BME280;40151;43.606;1.472;2023-03-20T12:27:16;99821.13;;;19.38;53.36
54236;BME280;40151;43.606;1.472;2023-03-20T12:29:47;99816.66;;;19.39;52.92
54236;BME280;40151;43.606;1.472;2023-03-20T12:32:39;99814.78;;;19.41;53.12
54236;BME280;40151;43.606;1.472;2023-03-20T12:35:14;99804.22;;;19.41;53.05
54236;BME280;40151;43.606;1.472;2023-03-20T12:37:41;99804.13;;;19.42;53.10
54236;BME280;40151;43.606;1.472;2023-03-20T12:40:17;99809.38;;;19.44;53.04
54236;BME280;40151;43.606;1.472;2023-03-20T12:45:20;99799.56;;;19.46;53.23
54236;BME280;40151;43.606;1.472;2023-03-20T12:50:46;99784.53;;;19.47;53.09
54236;BME280;40151;43.606;1.472;2023-03-20T12:53:42;99788.06;;;19.47;53.13
54236;BME280;40151;43.606;1.472;2023-03-20T12:59:12;99783.53;;;19.49;53.14
54236;BME280;40151;43.606;1.472;2023-03-20T13:02:07;99772.00;;;19.50;52.98
54236;BME280;40151;43.606;1.472;2023-03-20T13:10:32;99756.91;;;19.52;53.30
54236;BME280;40151;43.606;1.472;2023-03-20T13:13:19;99748.13;;;19.52;53.10
54236;BME280;40151;43.606;1.472;2023-03-20T13:21:31;99743.53;;;19.55;53.08
54236;BME280;40151;43.606;1.472;2023-03-20T13:29:26;99746.09;;;19.57;53.14
54236;BME280;40151;43.606;1.472;2023-03-20T13:35:16;99743.34;;;19.58;53.05
54236;BME280;40151;43.606;1.472;2023-03-20T13:37:49;99737.16;;;19.59;52.98
54236;BME280;40151;43.606;1.472;2023-03-20T13:40:25;99735.34;;;19.60;52.91
54236;BME280;40151;43.606;1.472;2023-03-20T13:45:37;99732.63;;;19.62;53.18
54236;BME280;40151;43.606;1.472;2023-03-20T13:48:28;99733.50;;;19.62;53.01
54236;BME280;40151;43.606;1.472;2023-03-20T13:51:12;99720.16;;;19.64;53.08
54236;BME280;40151;43.606;1.472;2023-03-20T13:57:09;99713.00;;;19.66;52.99
54236;BME280;40151;43.606;1.472;2023-03-20T14:02:49;99704.13;;;19.67;53.22
54236;BME280;40151;43.606;1.472;2023-03-20T14:05:21;99704.13;;;19.67;52.89
54236;BME280;40151;43.606;1.472;2023-03-20T14:07:49;99706.78;;;19.67;53.06
54236;BME280;40151;43.606;1.472;2023-03-20T14:12:54;99706.69;;;19.68;52.99
54236;BME280;40151;43.606;1.472;2023-03-20T14:15:21;99708.41;;;19.69;53.18
54236;BME280;40151;43.606;1.472;2023-03-20T14:17:49;99706.59;;;19.70;52.92
54236;BME280;40151;43.606;1.472;2023-03-20T14:20:36;99698.59;;;19.71;52.94
54236;BME280;40151;43.606;1.472;2023-03-20T14:23:03;99695.94;;;19.71;53.16
54236;BME280;40151;43.606;1.472;2023-03-20T14:25:35;99690.63;;;19.71;52.87
54236;BME280;40151;43.606;1.472;2023-03-20T14:30:44;99687.91;;;19.73;53.14
54236;BME280;40151;43.606;1.472;2023-03-20T14:35:49;99671.16;;;19.72;52.95
54236;BME280;40151;43.606;1.472;2023-03-20T14:49:52;99657.72;;;19.77;53.01
54236;BME280;40151;43.606;1.472;2023-03-20T14:52:34;99659.41;;;19.78;52.77
54236;BME280;40151;43.606;1.472;2023-03-20T14:57:40;99655.06;;;19.77;52.88
54236;BME280;40151;43.606;1.472;2023-03-20T15:00:19;99656.69;;;19.80;52.89
54236;BME280;40151;43.606;1.472;2023-03-20T15:02:49;99650.53;;;19.79;52.85
54236;BME280;40151;43.606;1.472;2023-03-20T15:05:31;99655.81;;;19.79;52.97
54236;BME280;40151;43.606;1.472;2023-03-20T15:08:04;99652.25;;;19.80;52.85
54236;BME280;40151;43.606;1.472;2023-03-20T15:10:33;99653.94;;;19.81;52.71
54236;BME280;40151;43.606;1.472;2023-03-20T15:12:59;99646.94;;;19.80;52.83